Time;durP1;ratioP1;P1;durP2;ratioP2;P2;SDS_P1;SDS_P2;PMS_P1;PMS_P2;Temp;Humidity;BMP_temperature;BMP_pressure;BME280_temperature;BME280_humidity;BME280_pressure;Samples;Min_cycle;Max_cycle;Signal;HPM_P1;HPM_P2
2023/03/01 00:01:33;;;;;;;20.93;12.80;;;;;;;;;;4770528;30;20648;-86
2023/03/01 00:04:37;;;;;;;17.97;11.80;;;;;;;;;;4770896;30;20968;-86
2023/03/01 00:07:41;;;;;;;20.33;12.30;;;;;;;;;;4770781;30;20574;-86
2023/03/01 00:10:45;;;;;;;19.47;11.47;;;;;;;;;;4770869;30;21138;-86
2023/03/01 00:13:52;;;;;;;19.63;12.67;;;;;;;;;;4770796;30;20576;-86
2023/03/01 00:16:56;;;;;;;17.77;12.30;;;;;;;;;;4760617;30;20626;-86
2023/03/01 00:20:00;;;;;;;19.40;12.30;;;;;;;;;;4771314;30;20641;-86
2023/03/01 00:23:04;;;;;;;19.23;12.20;;;;;;;;;;4770803;30;21136;-86
2023/03/01 00:26:12;;;;;;;20.33;11.63;;;;;;;;;;4770945;30;20571;-86
2023/03/01 00:29:21;;;;;;;17.30;11.57;;;;;;;;;;4770869;30;20668;-86
2023/03/01 00:32:26;;;;;;;18.77;12.20;;;;;;;;;;4771818;30;20582;-90
2023/03/01 00:35:32;;;;;;;22.17;13.13;;;;;;;;;;4770775;30;20985;-90
2023/03/01 00:38:41;;;;;;;21.23;12.27;;;;;;;;;;4769540;30;21003;-89
2023/03/01 00:41:46;;;;;;;20.37;12.77;;;;;;;;;;4770206;30;20576;-89
2023/03/01 00:44:53;;;;;;;18.60;12.37;;;;;;;;;;4770197;30;20571;-90
2023/03/01 00:47:57;;;;;;;18.27;11.80;;;;;;;;;;4759913;30;20575;-89
2023/03/01 00:51:06;;;;;;;18.47;11.53;;;;;;;;;;4769961;30;20614;-90
2023/03/01 00:54:10;;;;;;;18.63;11.77;;;;;;;;;;4769750;30;21152;-88
2023/03/01 00:57:14;;;;;;;18.00;12.07;;;;;;;;;;4769795;30;20575;-89
2023/03/01 01:00:19;;;;;;;19.33;11.73;;;;;;;;;;4769171;30;20641;-89
2023/03/01 01:03:25;;;;;;;19.47;12.50;;;;;;;;;;4769758;30;20577;-89
2023/03/01 01:06:32;;;;;;;19.17;12.27;;;;;;;;;;4770184;30;20566;-90
2023/03/01 01:09:36;;;;;;;17.00;11.53;;;;;;;;;;4769461;30;20673;-89
2023/03/01 01:12:41;;;;;;;19.60;12.37;;;;;;;;;;4769939;30;20584;-89
2023/03/01 01:15:45;;;;;;;21.07;12.20;;;;;;;;;;4769771;30;20618;-90
2023/03/01 01:18:50;;;;;;;20.63;11.77;;;;;;;;;;4769807;30;20650;-89
2023/03/01 01:21:55;;;;;;;19.43;11.73;;;;;;;;;;4769980;30;21135;-90
2023/03/01 01:25:00;;;;;;;18.97;12.57;;;;;;;;;;4769673;30;20625;-90
2023/03/01 01:28:05;;;;;;;20.43;11.73;;;;;;;;;;4780060;30;20575;-90
2023/03/01 01:31:09;;;;;;;20.47;13.20;;;;;;;;;;4759605;30;20569;-90
2023/03/01 01:34:16;;;;;;;18.33;11.73;;;;;;;;;;4769661;30;20570;-90
2023/03/01 01:37:21;;;;;;;18.70;11.83;;;;;;;;;;4769190;30;20622;-89
2023/03/01 01:40:25;;;;;;;18.70;12.27;;;;;;;;;;4779420;30;20645;-90
2023/03/01 01:43:43;;;;;;;18.03;11.73;;;;;;;;;;4769447;30;21143;-90
2023/03/01 01:46:56;;;;;;;20.50;12.93;;;;;;;;;;4769548;30;20576;-89
2023/03/01 01:53:39;;;;;;;17.57;12.03;;;;;;;;;;4782974;30;20960;-90
2023/03/01 01:56:53;;;;;;;20.47;12.57;;;;;;;;;;4769080;30;20571;-90
2023/03/01 02:00:04;;;;;;;20.60;13.00;;;;;;;;;;4762528;30;20671;-90
2023/03/01 02:03:24;;;;;;;21.10;12.73;;;;;;;;;;4752064;30;21203;-90
2023/03/01 02:06:46;;;;;;;20.17;12.13;;;;;;;;;;4760861;30;20576;-90
2023/03/01 02:10:04;;;;;;;18.10;11.17;;;;;;;;;;4750226;30;20678;-89
2023/03/01 02:13:10;;;;;;;19.07;12.40;;;;;;;;;;4761173;30;20576;-86
2023/03/01 02:16:16;;;;;;;21.33;12.20;;;;;;;;;;4761320;30;21198;-86
2023/03/01 02:19:39;;;;;;;19.53;12.00;;;;;;;;;;4740700;30;20654;-86
2023/03/01 02:22:46;;;;;;;18.93;12.33;;;;;;;;;;4761467;30;20914;-86
2023/03/01 02:25:59;;;;;;;18.80;11.53;;;;;;;;;;4741708;30;21129;-86
2023/03/01 02:29:05;;;;;;;20.73;12.47;;;;;;;;;;4751438;30;20662;-87
2023/03/01 02:32:12;;;;;;;21.67;12.20;;;;;;;;;;4751222;30;20584;-86
2023/03/01 02:35:19;;;;;;;19.33;11.53;;;;;;;;;;4740767;30;21211;-87
2023/03/01 02:38:24;;;;;;;18.40;11.93;;;;;;;;;;4750620;30;20655;-87
2023/03/01 02:41:35;;;;;;;19.33;12.00;;;;;;;;;;4751006;30;20576;-86
2023/03/01 02:44:40;;;;;;;23.00;13.10;;;;;;;;;;4750902;30;20575;-86
2023/03/01 02:47:44;;;;;;;21.17;12.63;;;;;;;;;;4750528;30;20568;-86
2023/03/01 02:51:05;;;;;;;20.33;12.43;;;;;;;;;;4750800;30;20628;-86
2023/03/01 02:54:43;;;;;;;20.60;13.03;;;;;;;;;;4751008;30;20914;-86
2023/03/01 02:57:51;;;;;;;19.40;12.13;;;;;;;;;;4736626;30;20632;-86
2023/03/01 03:00:56;;;;;;;22.90;11.93;;;;;;;;;;4732887;30;20982;-87
2023/03/01 03:04:00;;;;;;;20.57;12.53;;;;;;;;;;4733231;30;21121;-86
2023/03/01 03:07:05;;;;;;;20.43;13.00;;;;;;;;;;4732677;30;20632;-86
2023/03/01 03:10:15;;;;;;;21.50;13.07;;;;;;;;;;4732805;30;20675;-86
2023/03/01 03:13:19;;;;;;;21.60;13.87;;;;;;;;;;4742766;30;20581;-86
2023/03/01 03:16:24;;;;;;;20.57;12.67;;;;;;;;;;4742623;30;20572;-87
2023/03/01 03:19:28;;;;;;;22.20;13.47;;;;;;;;;;4742755;30;20998;-86
2023/03/01 03:22:33;;;;;;;21.50;13.13;;;;;;;;;;4732440;30;20927;-86
2023/03/01 03:25:38;;;;;;;20.63;12.73;;;;;;;;;;4745967;30;20632;-86
2023/03/01 03:28:43;;;;;;;20.60;12.80;;;;;;;;;;4735603;30;21235;-86
2023/03/01 03:31:46;;;;;;;20.77;12.87;;;;;;;;;;4736194;30;20572;-86
2023/03/01 03:34:50;;;;;;;20.73;12.67;;;;;;;;;;4736098;30;21160;-87
2023/03/01 03:38:01;;;;;;;19.50;11.87;;;;;;;;;;4735895;30;20580;-87
2023/03/01 03:41:08;;;;;;;21.80;12.57;;;;;;;;;;4736018;30;21196;-86
2023/03/01 03:44:12;;;;;;;21.57;13.23;;;;;;;;;;4746467;30;20564;-86
2023/03/01 03:47:16;;;;;;;21.53;12.90;;;;;;;;;;4735817;30;20624;-86
2023/03/01 03:50:21;;;;;;;21.67;13.03;;;;;;;;;;4735549;30;20695;-86
2023/03/01 03:53:27;;;;;;;21.30;12.90;;;;;;;;;;4736282;30;20586;-86
2023/03/01 03:56:31;;;;;;;21.57;12.63;;;;;;;;;;4746207;30;20641;-86
2023/03/01 03:59:35;;;;;;;21.63;13.20;;;;;;;;;;4735759;30;20651;-86
2023/03/01 04:02:40;;;;;;;22.07;13.23;;;;;;;;;;4735659;30;20653;-87
2023/03/01 04:05:45;;;;;;;24.90;13.33;;;;;;;;;;4735754;30;21173;-87
2023/03/01 04:08:50;;;;;;;21.77;13.50;;;;;;;;;;4735582;30;21329;-86
2023/03/01 04:11:54;;;;;;;21.77;13.23;;;;;;;;;;4734697;30;20622;-88
2023/03/01 04:14:59;;;;;;;20.07;12.90;;;;;;;;;;4735174;30;20627;-86
2023/03/01 04:18:05;;;;;;;21.33;12.70;;;;;;;;;;4744960;30;20605;-86
2023/03/01 04:21:11;;;;;;;20.47;13.33;;;;;;;;;;4734930;30;20556;-86
2023/03/01 04:24:15;;;;;;;22.93;13.07;;;;;;;;;;4734730;30;20631;-87
2023/03/01 04:27:19;;;;;;;23.33;13.40;;;;;;;;;;4734700;30;20619;-87
2023/03/01 04:30:25;;;;;;;21.83;13.90;;;;;;;;;;4734353;30;20672;-87
2023/03/01 04:33:29;;;;;;;21.57;13.37;;;;;;;;;;4734624;30;20565;-86
2023/03/01 04:36:35;;;;;;;22.23;13.27;;;;;;;;;;4744746;30;20577;-86
2023/03/01 04:39:45;;;;;;;31.97;13.30;;;;;;;;;;4734560;30;20656;-86
2023/03/01 04:42:49;;;;;;;20.87;12.90;;;;;;;;;;4734433;30;20624;-86
2023/03/01 04:45:53;;;;;;;19.77;12.90;;;;;;;;;;4754983;30;20658;-86
2023/03/01 04:48:57;;;;;;;22.00;12.93;;;;;;;;;;4754735;30;21005;-86
2023/03/01 04:52:02;;;;;;;26.17;14.83;;;;;;;;;;4755011;30;21148;-86
2023/03/01 04:55:07;;;;;;;25.67;13.77;;;;;;;;;;4745641;30;20942;-86
2023/03/01 04:58:11;;;;;;;23.80;14.00;;;;;;;;;;4745227;30;20930;-86
2023/03/01 05:01:18;;;;;;;21.77;12.80;;;;;;;;;;4755077;30;20584;-87
2023/03/01 05:04:24;;;;;;;24.33;14.07;;;;;;;;;;4755478;30;20573;-86
2023/03/01 05:07:28;;;;;;;23.43;14.70;;;;;;;;;;4744977;30;20570;-86
2023/03/01 05:10:35;;;;;;;27.30;14.23;;;;;;;;;;4754552;30;20620;-88
2023/03/01 05:13:40;;;;;;;23.70;13.53;;;;;;;;;;4743781;30;20585;-88
2023/03/01 05:16:44;;;;;;;22.60;13.60;;;;;;;;;;4744239;30;20572;-88
2023/03/01 05:19:48;;;;;;;24.20;13.80;;;;;;;;;;4753572;30;20640;-88
2023/03/01 05:22:54;;;;;;;22.87;13.67;;;;;;;;;;4743631;30;20576;-88
2023/03/01 05:25:59;;;;;;;22.20;13.60;;;;;;;;;;4743522;30;20573;-88
2023/03/01 05:29:03;;;;;;;24.63;13.73;;;;;;;;;;4753712;30;20659;-88
2023/03/01 05:32:08;;;;;;;25.87;15.17;;;;;;;;;;4743493;30;21033;-88
2023/03/01 05:35:14;;;;;;;25.97;14.73;;;;;;;;;;4743537;30;20984;-88
2023/03/01 05:38:20;;;;;;;22.50;14.17;;;;;;;;;;4753452;30;20568;-88
2023/03/01 05:41:24;;;;;;;25.67;15.20;;;;;;;;;;4742857;30;20569;-88
2023/03/01 05:44:29;;;;;;;28.87;14.70;;;;;;;;;;4752979;30;20572;-88
2023/03/01 05:47:33;;;;;;;24.13;14.80;;;;;;;;;;4762892;30;20573;-88
2023/03/01 05:50:41;;;;;;;24.73;15.10;;;;;;;;;;4742925;30;20620;-88
2023/03/01 05:53:45;;;;;;;28.90;15.67;;;;;;;;;;4743156;30;20637;-88
2023/03/01 05:56:49;;;;;;;23.53;15.00;;;;;;;;;;4763055;30;20620;-88
2023/03/01 05:59:53;;;;;;;30.07;16.03;;;;;;;;;;4763362;30;20649;-88
2023/03/01 06:02:58;;;;;;;25.50;15.10;;;;;;;;;;4742415;30;20564;-87
2023/03/01 06:06:02;;;;;;;28.07;16.57;;;;;;;;;;4752620;30;20569;-88
2023/03/01 06:09:09;;;;;;;26.73;15.23;;;;;;;;;;4752651;30;21235;-87
2023/03/01 06:12:13;;;;;;;28.60;15.77;;;;;;;;;;4762576;30;20616;-87
2023/03/01 06:15:17;;;;;;;26.60;16.13;;;;;;;;;;4762992;30;20573;-87
2023/03/01 06:18:22;;;;;;;27.77;15.20;;;;;;;;;;4752629;30;20585;-87
2023/03/01 06:21:26;;;;;;;26.43;14.87;;;;;;;;;;4762888;30;20572;-87
2023/03/01 06:24:30;;;;;;;28.27;16.37;;;;;;;;;;4762516;30;20647;-88
2023/03/01 06:27:34;;;;;;;31.43;15.80;;;;;;;;;;4762481;30;20572;-87
2023/03/01 06:30:39;;;;;;;27.43;15.67;;;;;;;;;;4742899;30;20620;-88
2023/03/01 06:33:44;;;;;;;25.70;15.33;;;;;;;;;;4752853;30;20576;-88
2023/03/01 06:36:48;;;;;;;26.23;15.50;;;;;;;;;;4752829;30;20573;-87
2023/03/01 06:39:52;;;;;;;30.33;15.87;;;;;;;;;;4753424;30;20657;-87
2023/03/01 06:42:57;;;;;;;24.77;15.07;;;;;;;;;;4742920;30;20615;-87
2023/03/01 06:46:05;;;;;;;23.67;14.57;;;;;;;;;;4742352;30;20628;-87
2023/03/01 06:49:09;;;;;;;31.50;16.90;;;;;;;;;;4753194;30;20654;-88
2023/03/01 06:52:13;;;;;;;40.23;21.90;;;;;;;;;;4752414;30;20620;-87
2023/03/01 06:55:20;;;;;;;33.27;18.20;;;;;;;;;;4752956;30;20600;-88
2023/03/01 06:58:25;;;;;;;33.40;17.33;;;;;;;;;;4754043;30;20660;-87
2023/03/01 07:01:31;;;;;;;27.87;16.40;;;;;;;;;;4757111;30;20616;-86
2023/03/01 07:04:35;;;;;;;28.43;15.77;;;;;;;;;;4746517;30;20624;-87
2023/03/01 07:07:42;;;;;;;34.50;18.37;;;;;;;;;;4747068;30;20588;-85
2023/03/01 07:10:54;;;;;;;36.00;18.10;;;;;;;;;;4746428;30;21255;-85
2023/03/01 07:14:03;;;;;;;32.70;16.77;;;;;;;;;;4758959;30;20577;-85
2023/03/01 07:17:07;;;;;;;29.20;16.33;;;;;;;;;;4756320;30;20582;-84
2023/03/01 07:20:12;;;;;;;27.00;16.07;;;;;;;;;;4757341;30;20643;-85
2023/03/01 07:23:16;;;;;;;24.03;15.77;;;;;;;;;;4767829;30;20564;-85
2023/03/01 07:26:20;;;;;;;27.80;15.67;;;;;;;;;;4757004;30;20562;-84
2023/03/01 07:29:25;;;;;;;24.27;14.57;;;;;;;;;;4747245;30;21234;-85
2023/03/01 07:32:29;;;;;;;24.00;14.97;;;;;;;;;;4768733;30;20639;-84
2023/03/01 07:35:40;;;;;;;26.50;15.30;;;;;;;;;;4757618;30;20942;-85
2023/03/01 07:38:55;;;;;;;25.73;14.53;;;;;;;;;;4748322;30;20655;-85
2023/03/01 07:42:00;;;;;;;22.67;13.80;;;;;;;;;;4758085;30;20565;-85
2023/03/01 07:45:06;;;;;;;25.60;14.83;;;;;;;;;;4756238;30;20581;-86
2023/03/01 07:48:10;;;;;;;25.63;14.17;;;;;;;;;;4747128;30;20576;-85
2023/03/01 07:51:14;;;;;;;22.50;14.67;;;;;;;;;;4756325;30;20977;-85
2023/03/01 07:54:18;;;;;;;21.90;14.03;;;;;;;;;;4756401;30;20934;-85
2023/03/01 07:57:23;;;;;;;21.87;13.30;;;;;;;;;;4756062;30;20989;-85
2023/03/01 08:00:29;;;;;;;23.10;13.97;;;;;;;;;;4746029;30;20653;-85
2023/03/01 08:03:35;;;;;;;27.20;14.57;;;;;;;;;;4756658;30;20617;-85
2023/03/01 08:06:39;;;;;;;25.23;14.80;;;;;;;;;;4747216;30;20573;-85
2023/03/01 08:09:44;;;;;;;23.70;13.93;;;;;;;;;;4745743;30;20641;-85
2023/03/01 08:12:51;;;;;;;25.53;14.80;;;;;;;;;;4747489;30;20620;-85
2023/03/01 08:16:02;;;;;;;20.67;13.97;;;;;;;;;;4745647;30;20572;-85
2023/03/01 08:19:08;;;;;;;22.47;13.63;;;;;;;;;;4745827;30;20648;-84
2023/03/01 08:22:13;;;;;;;25.43;14.33;;;;;;;;;;4767249;30;20613;-85
2023/03/01 08:25:19;;;;;;;20.37;12.80;;;;;;;;;;4756823;30;20629;-84
2023/03/01 08:28:23;;;;;;;21.10;13.30;;;;;;;;;;4756264;30;20577;-84
2023/03/01 08:31:31;;;;;;;21.63;13.73;;;;;;;;;;4747157;30;20622;-84
2023/03/01 08:34:36;;;;;;;23.53;14.40;;;;;;;;;;4756697;30;20623;-84
2023/03/01 08:37:40;;;;;;;22.00;12.63;;;;;;;;;;4746987;30;20620;-85
2023/03/01 08:40:44;;;;;;;22.43;12.67;;;;;;;;;;4757043;30;20619;-83
2023/03/01 08:43:50;;;;;;;21.97;12.97;;;;;;;;;;4757442;30;20569;-83
2023/03/01 08:46:55;;;;;;;22.83;12.73;;;;;;;;;;4746798;30;20585;-84
2023/03/01 08:50:03;;;;;;;19.57;12.40;;;;;;;;;;4750824;30;20651;-84
2023/03/01 08:53:11;;;;;;;20.87;12.87;;;;;;;;;;4762195;30;20622;-85
2023/03/01 08:56:22;;;;;;;19.60;12.80;;;;;;;;;;4759126;30;20624;-85
2023/03/01 08:59:29;;;;;;;21.63;12.57;;;;;;;;;;4760434;30;20642;-88
2023/03/01 09:02:50;;;;;;;21.83;12.57;;;;;;;;;;4770939;30;20569;-85
2023/03/01 09:06:01;;;;;;;17.97;12.03;;;;;;;;;;4760707;30;20191;-85
2023/03/01 09:09:18;;;;;;;23.53;12.93;;;;;;;;;;4770315;30;20229;-85
2023/03/01 09:12:24;;;;;;;21.60;12.67;;;;;;;;;;4748740;30;21203;-85
2023/03/01 09:15:33;;;;;;;18.53;11.60;;;;;;;;;;4758590;30;20205;-85
2023/03/01 09:18:38;;;;;;;20.77;13.07;;;;;;;;;;4758418;30;20233;-85
2023/03/01 09:21:51;;;;;;;20.53;11.97;;;;;;;;;;4757021;30;20204;-85
2023/03/01 09:24:58;;;;;;;21.27;12.37;;;;;;;;;;4757377;30;20583;-85
2023/03/01 09:28:03;;;;;;;19.67;11.60;;;;;;;;;;4757274;30;20194;-85
2023/03/01 09:31:08;;;;;;;21.60;12.90;;;;;;;;;;4756262;30;20211;-86
2023/03/01 09:34:15;;;;;;;20.80;12.57;;;;;;;;;;4756038;30;20218;-85
2023/03/01 09:37:20;;;;;;;17.23;12.13;;;;;;;;;;4755720;30;20203;-85
2023/03/01 09:40:28;;;;;;;19.77;12.27;;;;;;;;;;4755713;30;20597;-86
2023/03/01 09:43:40;;;;;;;18.60;12.70;;;;;;;;;;4755023;30;20211;-85
2023/03/01 09:46:45;;;;;;;15.63;11.33;;;;;;;;;;4765399;30;20217;-85
2023/03/01 09:50:00;;;;;;;22.83;12.37;;;;;;;;;;4754152;30;20226;-85
2023/03/01 09:53:10;;;;;;;18.80;12.10;;;;;;;;;;4754849;30;20230;-86
2023/03/01 09:56:29;;;;;;;19.13;11.37;;;;;;;;;;4754082;30;20195;-86
2023/03/01 09:59:45;;;;;;;22.47;11.67;;;;;;;;;;4753893;30;20237;-86
2023/03/01 10:02:59;;;;;;;21.87;12.63;;;;;;;;;;4753445;30;20200;-86
2023/03/01 10:06:23;;;;;;;20.17;13.37;;;;;;;;;;4752876;30;20225;-85
2023/03/01 10:09:31;;;;;;;26.43;13.13;;;;;;;;;;4752460;30;20226;-86
2023/03/01 10:12:40;;;;;;;20.30;13.57;;;;;;;;;;4752195;30;20215;-85
2023/03/01 10:15:54;;;;;;;20.73;12.50;;;;;;;;;;4752698;30;20198;-84
2023/03/01 10:19:01;;;;;;;27.47;13.33;;;;;;;;;;4752127;30;20246;-84
2023/03/01 10:22:21;;;;;;;19.43;12.33;;;;;;;;;;4762147;30;20198;-84
2023/03/01 10:30:24;;;;;;;20.67;13.33;;;;;;;;;;4761392;30;20257;-86
2023/03/01 10:34:52;;;;;;;22.50;12.53;;;;;;;;;;4735296;30;20216;-86
2023/03/01 10:39:26;;;;;;;19.60;12.63;;;;;;;;;;4735455;30;20239;-85
2023/03/01 10:42:33;;;;;;;19.83;12.47;;;;;;;;;;4730592;30;20230;-85
2023/03/01 10:45:39;;;;;;;37.13;14.23;;;;;;;;;;4722786;30;20198;-85
2023/03/01 10:48:43;;;;;;;18.87;12.73;;;;;;;;;;4733209;30;20237;-86
2023/03/01 10:51:50;;;;;;;20.87;13.50;;;;;;;;;;4732505;30;20241;-85
2023/03/01 10:55:01;;;;;;;23.27;14.03;;;;;;;;;;4732732;30;20204;-85
2023/03/01 10:58:30;;;;;;;19.60;12.50;;;;;;;;;;4732624;30;20218;-86
2023/03/01 11:02:27;;;;;;;22.23;12.57;;;;;;;;;;4746035;30;20623;-86
2023/03/01 11:06:29;;;;;;;20.40;12.63;;;;;;;;;;4772535;30;20190;-86
2023/03/01 11:09:39;;;;;;;18.10;12.90;;;;;;;;;;4750915;30;20249;-86
2023/03/01 11:12:44;;;;;;;22.10;13.27;;;;;;;;;;4751483;30;20233;-84
2023/03/01 11:16:22;;;;;;;18.83;12.97;;;;;;;;;;4743634;30;20210;-88
2023/03/01 11:19:27;;;;;;;17.77;12.57;;;;;;;;;;4734648;30;20238;-89
2023/03/01 11:22:32;;;;;;;18.17;13.20;;;;;;;;;;4733816;30;20198;-89
2023/03/01 11:25:39;;;;;;;20.20;13.03;;;;;;;;;;4742737;30;20226;-88
2023/03/01 11:28:48;;;;;;;20.10;11.87;;;;;;;;;;4743568;30;20236;-89
2023/03/01 11:31:57;;;;;;;17.53;11.53;;;;;;;;;;4743927;30;20821;-89
2023/03/01 11:35:26;;;;;;;21.43;12.30;;;;;;;;;;4743504;30;20561;-88
2023/03/01 11:38:34;;;;;;;17.50;12.23;;;;;;;;;;4732120;30;20253;-89
2023/03/01 11:41:40;;;;;;;18.23;11.80;;;;;;;;;;4742288;30;20202;-89
2023/03/01 11:44:49;;;;;;;16.80;11.83;;;;;;;;;;4743561;30;20187;-88
2023/03/01 11:48:02;;;;;;;18.87;12.80;;;;;;;;;;4746029;30;20195;-89
2023/03/01 11:51:25;;;;;;;18.17;12.07;;;;;;;;;;4735159;30;20202;-90
2023/03/01 11:54:45;;;;;;;19.63;13.10;;;;;;;;;;4735216;30;20184;-89
2023/03/01 11:58:21;;;;;;;18.13;12.30;;;;;;;;;;4745477;30;20206;-88
2023/03/01 12:01:44;;;;;;;21.03;12.63;;;;;;;;;;4745198;30;20195;-90
2023/03/01 12:05:51;;;;;;;20.00;12.37;;;;;;;;;;4756390;30;20210;-90
2023/03/01 12:09:47;;;;;;;17.70;12.83;;;;;;;;;;4745357;30;20234;-89
2023/03/01 12:18:02;;;;;;;19.90;12.90;;;;;;;;;;4756940;30;20210;-90
2023/03/01 12:21:34;;;;;;;16.93;12.30;;;;;;;;;;4735988;30;20200;-87
2023/03/01 12:24:46;;;;;;;18.33;12.07;;;;;;;;;;4734946;30;20764;-87
2023/03/01 12:28:12;;;;;;;18.83;11.90;;;;;;;;;;4735192;30;20210;-87
2023/03/01 12:31:29;;;;;;;20.13;12.33;;;;;;;;;;4736443;30;20681;-88
2023/03/01 12:34:37;;;;;;;17.33;11.87;;;;;;;;;;4734868;30;20198;-89
2023/03/01 12:38:16;;;;;;;16.57;12.27;;;;;;;;;;4750243;30;20218;-89
2023/03/01 12:41:39;;;;;;;17.70;12.10;;;;;;;;;;4736515;30;20191;-90
2023/03/01 12:44:56;;;;;;;17.47;11.30;;;;;;;;;;4736396;30;20195;-90
2023/03/01 12:48:19;;;;;;;23.17;12.07;;;;;;;;;;4736746;30;20198;-88
2023/03/01 12:51:28;;;;;;;18.60;12.37;;;;;;;;;;4737319;30;20198;-89
2023/03/01 12:54:36;;;;;;;17.17;12.23;;;;;;;;;;4738776;30;20194;-89
2023/03/01 12:57:48;;;;;;;19.27;12.40;;;;;;;;;;4737399;30;20226;-90
2023/03/01 13:01:14;;;;;;;17.13;12.10;;;;;;;;;;4737439;30;20564;-89
2023/03/01 13:04:18;;;;;;;17.93;12.07;;;;;;;;;;4745402;30;20203;-90
2023/03/01 13:07:52;;;;;;;17.67;11.43;;;;;;;;;;4734855;30;20203;-90
2023/03/01 13:11:15;;;;;;;16.00;11.40;;;;;;;;;;4734810;30;20191;-90
2023/03/01 13:14:25;;;;;;;18.77;10.90;;;;;;;;;;4733562;30;20227;-89
2023/03/01 13:17:43;;;;;;;18.30;11.63;;;;;;;;;;4743787;30;20211;-88
2023/03/01 13:20:52;;;;;;;17.60;11.43;;;;;;;;;;4733778;30;20195;-90
2023/03/01 13:23:56;;;;;;;16.17;10.47;;;;;;;;;;4734245;30;20698;-89
2023/03/01 13:27:06;;;;;;;16.00;11.03;;;;;;;;;;4734963;30;20211;-89
2023/03/01 13:30:34;;;;;;;17.50;10.90;;;;;;;;;;4734585;30;20234;-89
2023/03/01 13:33:46;;;;;;;15.03;10.40;;;;;;;;;;4734036;30;20214;-89
2023/03/01 13:36:51;;;;;;;15.20;11.17;;;;;;;;;;4734132;30;20204;-89
2023/03/01 13:39:57;;;;;;;15.63;10.80;;;;;;;;;;4733855;30;20257;-89
2023/03/01 13:43:51;;;;;;;16.53;10.80;;;;;;;;;;4733651;30;20711;-89
2023/03/01 13:46:58;;;;;;;17.73;11.10;;;;;;;;;;4733758;30;20203;-89
2023/03/01 13:50:04;;;;;;;15.47;11.20;;;;;;;;;;4733899;30;20227;-89
2023/03/01 13:53:17;;;;;;;15.27;10.57;;;;;;;;;;4734380;30;20234;-88
2023/03/01 13:56:27;;;;;;;20.13;11.27;;;;;;;;;;4733921;30;20215;-89
2023/03/01 13:59:31;;;;;;;15.23;10.93;;;;;;;;;;4743968;30;20749;-89
2023/03/01 14:02:36;;;;;;;16.73;10.83;;;;;;;;;;4733961;30;20195;-89
2023/03/01 14:05:43;;;;;;;15.97;10.00;;;;;;;;;;4755339;30;20198;-91
2023/03/01 14:08:50;;;;;;;18.17;11.73;;;;;;;;;;4744072;30;20230;-91
2023/03/01 14:12:21;;;;;;;16.17;10.10;;;;;;;;;;4743910;30;20707;-90
2023/03/01 14:16:05;;;;;;;15.40;9.77;;;;;;;;;;4743637;30;20202;-90
2023/03/01 14:19:24;;;;;;;16.97;10.27;;;;;;;;;;4733488;30;20720;-90
2023/03/01 14:22:33;;;;;;;12.83;9.70;;;;;;;;;;4743449;30;20202;-89
2023/03/01 14:25:40;;;;;;;16.00;10.00;;;;;;;;;;4733573;30;20222;-91
2023/03/01 14:28:45;;;;;;;15.27;10.33;;;;;;;;;;4743303;30;20734;-90
2023/03/01 14:31:49;;;;;;;17.43;11.07;;;;;;;;;;4733094;30;20203;-90
2023/03/01 14:34:53;;;;;;;18.37;9.80;;;;;;;;;;4743723;30;20198;-91
2023/03/01 14:37:58;;;;;;;19.20;11.20;;;;;;;;;;4733174;30;20199;-91
2023/03/01 14:41:10;;;;;;;15.93;10.60;;;;;;;;;;4733215;30;20694;-89
2023/03/01 14:44:24;;;;;;;15.07;10.33;;;;;;;;;;4733004;30;20194;-90
2023/03/01 14:47:33;;;;;;;17.40;11.37;;;;;;;;;;4743060;30;20200;-90
2023/03/01 14:50:42;;;;;;;18.27;10.53;;;;;;;;;;4743116;30;20214;-89
2023/03/01 14:53:46;;;;;;;16.80;10.73;;;;;;;;;;4753645;30;20237;-89
2023/03/01 14:56:53;;;;;;;16.03;10.87;;;;;;;;;;4742620;30;20224;-90
2023/03/01 15:00:00;;;;;;;17.17;10.53;;;;;;;;;;4732364;30;20255;-89
2023/03/01 15:03:14;;;;;;;14.67;10.33;;;;;;;;;;4732979;30;20192;-89
2023/03/01 15:06:21;;;;;;;16.30;10.17;;;;;;;;;;4732406;30;20280;-88
2023/03/01 15:09:51;;;;;;;15.60;10.97;;;;;;;;;;4742299;30;20237;-90
2023/03/01 15:13:22;;;;;;;17.97;10.13;;;;;;;;;;4732594;30;20198;-90
2023/03/01 15:17:16;;;;;;;16.33;10.60;;;;;;;;;;4732748;30;20671;-89
2023/03/01 15:21:49;;;;;;;16.37;10.50;;;;;;;;;;4757188;30;20193;-90
2023/03/01 15:24:57;;;;;;;18.60;10.37;;;;;;;;;;4735965;30;20224;-89
2023/03/01 15:28:02;;;;;;;15.60;10.90;;;;;;;;;;4747401;30;20294;-89
2023/03/01 15:31:23;;;;;;;14.47;9.60;;;;;;;;;;4736530;30;20199;-89
2023/03/01 15:34:33;;;;;;;17.67;10.80;;;;;;;;;;4735120;30;20562;-89
2023/03/01 15:37:49;;;;;;;20.77;11.43;;;;;;;;;;4745963;30;20198;-89
2023/03/01 15:40:55;;;;;;;16.27;10.73;;;;;;;;;;4745641;30;20202;-90
2023/03/01 15:44:13;;;;;;;26.53;12.43;;;;;;;;;;4734998;30;20196;-89
2023/03/01 15:47:22;;;;;;;19.90;12.73;;;;;;;;;;4745386;30;20195;-90
2023/03/01 15:50:33;;;;;;;16.47;11.70;;;;;;;;;;4752641;30;20304;-88
2023/03/01 15:53:37;;;;;;;19.80;12.43;;;;;;;;;;4735675;30;20247;-89
2023/03/01 15:56:41;;;;;;;18.53;12.73;;;;;;;;;;4735402;30;20203;-89
2023/03/01 15:59:45;;;;;;;15.93;11.13;;;;;;;;;;4745135;30;20230;-89
2023/03/01 16:02:49;;;;;;;17.63;11.03;;;;;;;;;;4745288;30;20198;-89
2023/03/01 16:05:54;;;;;;;18.37;12.03;;;;;;;;;;4735427;30;20209;-89
2023/03/01 16:08:58;;;;;;;18.83;11.87;;;;;;;;;;4735000;30;20235;-89
2023/03/01 16:12:02;;;;;;;18.87;11.93;;;;;;;;;;4745978;30;20202;-87
2023/03/01 16:15:28;;;;;;;17.53;12.27;;;;;;;;;;4735242;30;20299;-89
2023/03/01 16:18:32;;;;;;;19.47;12.27;;;;;;;;;;4734899;30;20235;-89
2023/03/01 16:21:37;;;;;;;20.27;12.77;;;;;;;;;;4734775;30;20575;-90
2023/03/01 16:24:41;;;;;;;20.80;12.80;;;;;;;;;;4735129;30;20221;-88
2023/03/01 16:27:49;;;;;;;19.87;13.17;;;;;;;;;;4735080;30;20197;-89
2023/03/01 16:30:53;;;;;;;24.17;15.27;;;;;;;;;;4744834;30;20601;-89
2023/03/01 16:33:59;;;;;;;43.23;22.53;;;;;;;;;;4734433;30;20242;-88
2023/03/01 16:37:03;;;;;;;24.90;14.17;;;;;;;;;;4746525;30;20220;-90
2023/03/01 16:40:18;;;;;;;20.40;13.10;;;;;;;;;;4734297;30;20591;-89
2023/03/01 16:43:22;;;;;;;21.97;14.30;;;;;;;;;;4744233;30;20580;-90
2023/03/01 16:46:28;;;;;;;27.20;16.83;;;;;;;;;;4734219;30;20664;-90
2023/03/01 16:49:32;;;;;;;74.53;37.13;;;;;;;;;;4734338;30;20233;-89
2023/03/01 16:52:37;;;;;;;23.67;14.77;;;;;;;;;;4734263;30;20195;-90
2023/03/01 16:55:45;;;;;;;27.63;15.03;;;;;;;;;;4733624;30;20183;-90
2023/03/01 16:58:49;;;;;;;24.00;13.87;;;;;;;;;;4733470;30;20233;-91
2023/03/01 17:01:53;;;;;;;23.17;13.23;;;;;;;;;;4733819;30;20679;-89
2023/03/01 17:04:57;;;;;;;20.47;14.10;;;;;;;;;;4733607;30;20671;-89
2023/03/01 17:08:01;;;;;;;23.27;13.90;;;;;;;;;;4733473;30;20202;-91
2023/03/01 17:11:10;;;;;;;28.97;17.63;;;;;;;;;;4733928;30;20191;-89
2023/03/01 17:14:15;;;;;;;26.03;14.43;;;;;;;;;;4733594;30;20238;-90
2023/03/01 17:17:20;;;;;;;26.83;13.73;;;;;;;;;;4743465;30;20206;-89
2023/03/01 17:20:24;;;;;;;28.17;14.97;;;;;;;;;;4733505;30;20233;-89
2023/03/01 17:23:29;;;;;;;21.67;13.83;;;;;;;;;;4733071;30;20572;-89
2023/03/01 17:26:33;;;;;;;24.43;14.63;;;;;;;;;;4743620;30;20198;-91
2023/03/01 17:29:39;;;;;;;27.33;16.03;;;;;;;;;;4733607;30;20238;-90
2023/03/01 17:32:44;;;;;;;25.27;15.40;;;;;;;;;;4733226;30;20588;-90
2023/03/01 17:35:49;;;;;;;26.57;14.93;;;;;;;;;;4743602;30;20195;-90
2023/03/01 17:38:53;;;;;;;23.77;15.37;;;;;;;;;;4754728;30;20711;-91
2023/03/01 17:41:57;;;;;;;23.33;15.33;;;;;;;;;;4732943;30;20704;-89
2023/03/01 17:45:01;;;;;;;36.47;18.10;;;;;;;;;;4743119;30;20194;-90
2023/03/01 17:48:06;;;;;;;27.27;15.20;;;;;;;;;;4734038;30;20210;-89
2023/03/01 17:51:11;;;;;;;23.77;13.93;;;;;;;;;;4732705;30;20595;-90
2023/03/01 17:54:15;;;;;;;21.57;13.53;;;;;;;;;;4742880;30;20230;-90
2023/03/01 17:57:19;;;;;;;21.97;13.57;;;;;;;;;;4743248;30;20198;-91
2023/03/01 18:00:23;;;;;;;22.97;14.23;;;;;;;;;;4742784;30;20237;-91
2023/03/01 18:03:28;;;;;;;23.10;13.50;;;;;;;;;;4745215;30;20211;-91
2023/03/01 18:06:32;;;;;;;22.67;14.57;;;;;;;;;;4725166;30;20218;-90
2023/03/01 18:09:36;;;;;;;26.97;15.07;;;;;;;;;;4732171;30;20229;-90
2023/03/01 18:12:40;;;;;;;25.97;14.80;;;;;;;;;;4732185;30;20199;-91
2023/03/01 18:15:44;;;;;;;27.53;14.93;;;;;;;;;;4732118;30;20237;-91
2023/03/01 18:18:53;;;;;;;25.27;16.07;;;;;;;;;;4741898;30;20222;-91
2023/03/01 18:21:57;;;;;;;25.13;15.13;;;;;;;;;;4731753;30;20198;-90
2023/03/01 18:25:01;;;;;;;25.93;14.60;;;;;;;;;;4733352;30;20207;-91
2023/03/01 18:28:05;;;;;;;26.00;15.20;;;;;;;;;;4732226;30;20663;-90
2023/03/01 18:31:10;;;;;;;25.50;15.13;;;;;;;;;;4731963;30;20205;-91
2023/03/01 18:34:14;;;;;;;25.73;15.00;;;;;;;;;;4732614;30;20588;-90
2023/03/01 18:37:18;;;;;;;25.37;13.67;;;;;;;;;;4731630;30;20195;-92